Aviation Digital Data Service (ADDS)

Output produced by TAFs form (1002 UTC 23 April 2017)
found at http://www.aviationweather.gov/adds/tafs/
 
METAR text: RJTF 230800Z 20010KT 9999 FEW030 17/04 Q1017
Conditions at: RJTF (CHOFU AIRPORT , JP) observed 0800 UTC 23 April 2017
Temperature: 17.0°C (63°F)
Dewpoint: 4.0°C (39°F) [RH = 42%]
Pressure (altimeter): 30.03 inches Hg (1017.0 mb)
Winds: from the SSW (200 degrees) at 12 MPH (10 knots; 5.2 m/s)
Visibility: 6 or more miles (10+ km)
Ceiling: at least 12,000 feet AGL
Clouds: few clouds at 3000 feet AGL
Weather: no significant weather observed at this time